Time;durP1;ratioP1;P1;durP2;ratioP2;P2;SDS_P1;SDS_P2;PMS_P1;PMS_P2;Temp;Humidity;BMP_temperature;BMP_pressure;BME280_temperature;BME280_humidity;BME280_pressure;Samples;Min_cycle;Max_cycle;Signal;HPM_P1;HPM_P2
2023/05/30 00:01:23;;;;;;;10.72;3.12;;;;;;;15.62;49.46;100508.58;1777077;80;25452;-54
2023/05/30 00:03:50;;;;;;;8.15;2.87;;;;;;;15.55;49.58;100504.25;1748907;80;25592;-50
2023/05/30 00:06:18;;;;;;;6.80;2.42;;;;;;;15.54;49.57;100508.09;1777080;80;25566;-52
2023/05/30 00:08:45;;;;;;;7.55;3.00;;;;;;;15.48;49.50;100512.97;1777218;80;25127;-53
2023/05/30 00:11:18;;;;;;;8.38;3.00;;;;;;;15.42;49.60;100505.55;1777109;80;27473;-52
2023/05/30 00:13:44;;;;;;;8.15;3.02;;;;;;;15.40;49.56;100509.77;1776818;80;25528;-52
2023/05/30 00:16:13;;;;;;;7.25;3.10;;;;;;;15.37;49.90;100510.44;1777153;80;25386;-51
2023/05/30 00:18:41;;;;;;;7.85;3.30;;;;;;;15.30;49.96;100509.04;1777275;80;25557;-50
2023/05/30 00:21:10;;;;;;;12.47;3.37;;;;;;;15.27;50.12;100513.00;1777189;80;25399;-53
2023/05/30 00:23:44;;;;;;;8.95;3.00;;;;;;;15.21;49.92;100506.19;1776822;80;29721;-52
2023/05/30 00:26:10;;;;;;;11.93;3.12;;;;;;;15.15;50.11;100513.75;1775467;80;25749;-53
2023/05/30 00:28:37;;;;;;;12.00;2.75;;;;;;;15.11;50.31;100514.98;1777265;80;26714;-53
2023/05/30 00:31:04;;;;;;;10.85;3.10;;;;;;;15.07;50.46;100508.63;1777125;80;25566;-54
2023/05/30 00:33:30;;;;;;;7.95;2.85;;;;;;;15.02;50.53;100510.77;1777108;80;25601;-56
2023/05/30 00:35:58;;;;;;;8.10;2.70;;;;;;;14.97;50.66;100509.61;1777192;80;27450;-53
2023/05/30 00:38:24;;;;;;;5.22;3.08;;;;;;;14.92;50.69;100505.15;1777025;80;25442;-55
2023/05/30 00:40:50;;;;;;;4.95;2.47;;;;;;;14.88;50.86;100505.56;1777106;80;25566;-55
2023/05/30 00:43:21;;;;;;;7.45;2.90;;;;;;;14.84;50.82;100499.99;1777060;80;25558;-55
2023/05/30 00:45:53;;;;;;;8.13;2.58;;;;;;;14.81;50.83;100507.45;1777280;80;25614;-56
2023/05/30 00:48:21;;;;;;;9.95;3.20;;;;;;;14.79;50.92;100496.68;1777192;80;27460;-55
2023/05/30 00:50:50;;;;;;;7.20;2.42;;;;;;;14.74;51.02;100505.84;1777043;80;25548;-54
2023/05/30 00:53:21;;;;;;;16.42;15.03;;;;;;;14.72;51.23;100502.08;1777240;80;25536;-55
2023/05/30 00:55:50;;;;;;;7.87;7.05;;;;;;;14.72;50.98;100502.66;1787595;80;25832;-53
2023/05/30 00:58:18;;;;;;;5.42;2.90;;;;;;;14.72;51.10;100506.16;1788251;80;25634;-55
2023/05/30 01:00:45;;;;;;;5.97;2.67;;;;;;;14.72;51.22;100505.37;1787813;80;27642;-53
2023/05/30 01:03:15;;;;;;;8.68;2.67;;;;;;;14.70;51.15;100502.19;1787261;80;25740;-54
2023/05/30 01:05:44;;;;;;;6.03;2.90;;;;;;;14.70;51.30;100507.64;1787433;80;25433;-54
2023/05/30 01:08:11;;;;;;;11.48;2.42;;;;;;;14.72;51.89;100501.30;1787489;80;26008;-56
2023/05/30 01:10:39;;;;;;;8.08;2.70;;;;;;;14.73;51.94;100500.97;1756214;81;25466;-55
2023/05/30 01:13:33;;;;;;;11.18;2.52;;;;;;;14.77;51.89;100503.81;1787404;80;27507;-55
2023/05/30 01:16:06;;;;;;;9.75;2.60;;;;;;;14.77;51.54;100507.91;1787228;80;25445;-55
2023/05/30 01:18:47;;;;;;;6.47;2.52;;;;;;;14.72;51.43;100502.08;1790228;80;25437;-56
2023/05/30 01:21:16;;;;;;;8.80;3.45;;;;;;;14.73;51.07;100511.85;1789379;80;26406;-55
2023/05/30 01:24:15;;;;;;;8.05;2.70;;;;;;;14.69;51.01;100507.39;1790573;80;25442;-57
2023/05/30 01:26:52;;;;;;;;;;;;;;;14.65;51.02;100509.98;1793024;80;27484;-56
2023/05/30 01:29:23;;;;;;;6.17;3.00;;;;;;;14.57;50.75;100512.17;1790347;80;25374;-54
2023/05/30 01:31:52;;;;;;;8.60;3.10;;;;;;;14.52;50.50;100518.63;1790446;80;25495;-52
2023/05/30 01:34:20;;;;;;;6.33;2.70;;;;;;;14.50;50.75;100524.94;1790443;80;25557;-52
2023/05/30 01:36:47;;;;;;;7.67;2.55;;;;;;;14.47;50.71;100522.08;1790674;80;25602;-54
2023/05/30 01:39:14;;;;;;;14.75;2.45;;;;;;;14.47;51.10;100526.98;1790407;80;27450;-55
2023/05/30 01:42:19;;;;;;;11.28;2.92;;;;;;;14.44;50.82;100530.35;1790333;80;25651;-52
2023/05/30 01:45:10;;;;;;;7.95;2.70;;;;;;;14.40;50.80;100532.12;1787411;80;25572;-52
2023/05/30 01:47:44;;;;;;;9.30;2.52;;;;;;;14.36;50.72;100530.62;1787339;80;26414;-53
2023/05/30 01:50:22;;;;;;;8.83;3.17;;;;;;;14.36;51.00;100533.91;1756278;81;25494;-53
2023/05/30 01:52:56;;;;;;;;;;;;;;;14.36;51.13;100536.06;1790037;80;27211;-53
2023/05/30 01:55:26;;;;;;;8.28;2.60;;;;;;;14.37;51.04;100536.88;1787121;80;25420;-53
2023/05/30 01:57:53;;;;;;;;;;;;;;;14.32;50.74;100532.95;1758770;81;25401;-54
2023/05/30 02:00:24;;;;;;;5.87;2.33;;;;;;;14.29;51.03;100539.87;1756127;81;25587;-54
2023/05/30 02:02:51;;;;;;;8.28;4.05;;;;;;;14.27;50.83;100535.86;1787409;80;25390;-53
2023/05/30 02:05:17;;;;;;;12.58;2.65;;;;;;;14.23;50.77;100531.64;1787329;80;27513;-55
2023/05/30 02:07:44;;;;;;;5.42;2.08;;;;;;;14.20;50.77;100527.67;1756156;81;25455;-51
2023/05/30 02:10:11;;;;;;;9.33;2.42;;;;;;;14.17;50.61;100535.69;1787396;80;25591;-51
2023/05/30 02:12:37;;;;;;;8.00;2.52;;;;;;;14.11;50.50;100537.77;1756135;81;25543;-51
2023/05/30 02:15:06;;;;;;;7.22;2.98;;;;;;;14.08;50.74;100539.00;1787366;80;25525;-53
2023/05/30 02:17:33;;;;;;;9.40;3.02;;;;;;;14.03;50.39;100539.17;1787564;80;28501;-54
2023/05/30 02:20:00;;;;;;;5.78;2.35;;;;;;;13.96;50.41;100548.66;1787275;80;25500;-55
2023/05/30 02:22:27;;;;;;;5.55;2.10;;;;;;;13.91;50.41;100554.27;1756177;81;25458;-53
2023/05/30 02:24:55;;;;;;;5.45;2.58;;;;;;;13.87;50.50;100562.03;1787314;80;25555;-51
2023/05/30 02:27:21;;;;;;;7.05;2.52;;;;;;;13.80;50.66;100556.52;1787467;80;25455;-52
2023/05/30 02:29:47;;;;;;;11.40;2.52;;;;;;;13.78;50.78;100558.77;1787257;80;27471;-55
2023/05/30 02:32:14;;;;;;;5.75;2.17;;;;;;;13.75;50.77;100553.19;1787185;80;25545;-51
2023/05/30 02:34:40;;;;;;;7.87;2.62;;;;;;;13.75;51.18;100549.90;1726270;81;25450;-54
2023/05/30 02:37:07;;;;;;;7.20;2.42;;;;;;;13.77;51.29;100544.96;1787315;80;25766;-57
2023/05/30 02:39:33;;;;;;;8.60;2.67;;;;;;;13.81;51.20;100545.89;1756193;81;25429;-57
2023/05/30 02:42:01;;;;;;;5.10;2.08;;;;;;;13.84;51.13;100552.59;1787331;80;27597;-52
2023/05/30 02:44:28;;;;;;;7.30;3.22;;;;;;;13.86;50.96;100550.38;1787276;80;25721;-53
2023/05/30 02:46:54;;;;;;;7.92;1.80;;;;;;;13.86;50.76;100557.70;1756153;81;25449;-54
2023/05/30 02:49:20;;;;;;;8.58;2.30;;;;;;;13.83;50.57;100557.23;1787252;80;25536;-52
2023/05/30 02:51:46;;;;;;;6.30;2.45;;;;;;;13.84;50.86;100552.59;1756157;81;25620;-53
2023/05/30 02:54:13;;;;;;;9.83;2.50;;;;;;;13.86;50.86;100557.17;1787312;80;27585;-55
2023/05/30 02:56:39;;;;;;;5.65;2.12;;;;;;;13.88;50.82;100562.28;1760535;81;25499;-55
2023/05/30 02:59:06;;;;;;;5.62;3.05;;;;;;;13.86;50.58;100559.88;1793247;80;25697;-55
2023/05/30 03:01:32;;;;;;;7.70;2.72;;;;;;;13.83;50.53;100569.48;1761934;81;25668;-54
2023/05/30 03:03:58;;;;;;;6.72;1.82;;;;;;;13.78;50.57;100566.92;1793356;80;25376;-53
2023/05/30 03:06:25;;;;;;;8.98;2.37;;;;;;;13.79;50.68;100568.53;1793388;80;28646;-54
2023/05/30 03:08:59;;;;;;;12.58;2.67;;;;;;;13.78;50.64;100568.86;1761901;81;25156;-54
2023/05/30 03:11:25;;;;;;;6.42;2.05;;;;;;;13.74;50.59;100567.35;1793377;80;25542;-55
2023/05/30 03:13:53;;;;;;;6.72;2.50;;;;;;;13.72;50.67;100572.29;1761868;81;25506;-52
2023/05/30 03:16:20;;;;;;;6.85;2.35;;;;;;;13.69;50.80;100572.95;1793317;80;25452;-55
2023/05/30 03:18:49;;;;;;;8.75;2.37;;;;;;;13.68;50.83;100571.92;1762010;81;27539;-54
2023/05/30 03:21:16;;;;;;;7.50;2.40;;;;;;;13.69;51.05;100576.22;1793191;80;25410;-52
2023/05/30 03:23:42;;;;;;;5.58;2.35;;;;;;;13.70;51.20;100574.54;1793259;80;25357;-52
2023/05/30 03:26:09;;;;;;;6.67;2.25;;;;;;;13.68;51.25;100575.42;1793231;80;25558;-55
2023/05/30 03:28:35;;;;;;;6.45;2.50;;;;;;;13.67;51.21;100579.83;1793352;80;25376;-55
2023/05/30 03:31:03;;;;;;;8.80;3.95;;;;;;;13.67;51.37;100573.81;1793237;80;27509;-51
2023/05/30 03:33:30;;;;;;;6.62;2.77;;;;;;;13.69;51.31;100580.30;1761950;81;25413;-52
2023/05/30 03:35:56;;;;;;;8.90;2.70;;;;;;;13.68;51.44;100587.66;1793381;80;25519;-52
2023/05/30 03:38:24;;;;;;;9.58;4.05;;;;;;;13.66;51.36;100587.76;1761876;81;25560;-52
2023/05/30 03:40:50;;;;;;;4.97;2.25;;;;;;;13.63;51.47;100598.70;1793330;80;25622;-53
2023/05/30 03:43:16;;;;;;;7.85;2.98;;;;;;;13.62;51.76;100598.45;1761987;81;27452;-52
2023/05/30 03:45:42;;;;;;;6.35;4.15;;;;;;;13.62;51.90;100598.45;1793268;80;25869;-54
2023/05/30 03:48:08;;;;;;;7.00;3.27;;;;;;;13.62;52.04;100591.12;1793358;80;25437;-52
2023/05/30 03:50:34;;;;;;;7.17;2.47;;;;;;;13.60;51.89;100593.36;1761848;81;25588;-52
2023/05/30 03:53:00;;;;;;;6.30;2.42;;;;;;;13.62;52.06;100591.66;1793318;80;25511;-55
2023/05/30 03:55:26;;;;;;;13.10;2.67;;;;;;;13.62;52.32;100593.02;1760765;81;27538;-52
2023/05/30 03:57:53;;;;;;;4.58;2.10;;;;;;;13.61;52.22;100592.22;1787310;80;25523;-52
2023/05/30 04:00:20;;;;;;;9.58;6.58;;;;;;;13.62;52.54;100588.39;1787355;80;25530;-52
2023/05/30 04:02:47;;;;;;;7.67;2.62;;;;;;;13.62;52.61;100591.66;1756236;81;25497;-53
2023/05/30 04:05:13;;;;;;;8.95;2.77;;;;;;;13.63;52.75;100602.77;1787565;80;25530;-53
2023/05/30 04:07:39;;;;;;;9.88;2.37;;;;;;;13.65;52.82;100605.97;1756233;81;27540;-52
2023/05/30 04:10:08;;;;;;;7.58;3.10;;;;;;;13.67;52.96;100608.36;1787395;80;25502;-52
2023/05/30 04:12:34;;;;;;;5.03;2.22;;;;;;;13.68;53.03;100616.20;1787391;80;25392;-51
2023/05/30 04:15:01;;;;;;;19.75;18.32;;;;;;;13.70;53.06;100613.95;1787362;80;25605;-54
2023/05/30 04:17:30;;;;;;;4.55;2.15;;;;;;;13.72;53.15;100619.07;1787398;80;25441;-52
2023/05/30 04:19:57;;;;;;;29.90;27.37;;;;;;;13.72;53.24;100619.86;1787429;80;27379;-52
2023/05/30 04:22:24;;;;;;;13.35;11.50;;;;;;;13.73;53.28;100625.55;1787285;80;25899;-51
2023/05/30 04:24:50;;;;;;;6.40;2.65;;;;;;;13.74;53.49;100624.44;1756203;81;25589;-52
2023/05/30 04:27:17;;;;;;;6.90;2.70;;;;;;;13.78;53.39;100625.38;1787357;80;25528;-52
2023/05/30 04:29:46;;;;;;;6.50;2.95;;;;;;;13.83;53.69;100627.93;1787447;80;25469;-55
2023/05/30 04:32:13;;;;;;;7.33;3.08;;;;;;;13.86;53.66;100622.42;1787328;80;27534;-52
2023/05/30 04:34:39;;;;;;;7.10;2.25;;;;;;;13.92;53.58;100629.84;1756111;81;25446;-55
2023/05/30 04:37:10;;;;;;;8.70;2.90;;;;;;;13.96;53.73;100633.50;1787380;80;25647;-54
2023/05/30 04:39:39;;;;;;;8.73;2.83;;;;;;;13.99;53.93;100625.48;1787367;80;25447;-53
2023/05/30 04:42:07;;;;;;;6.95;3.00;;;;;;;14.08;54.02;100636.38;1726523;81;25648;-52
2023/05/30 04:44:37;;;;;;;9.85;2.75;;;;;;;14.17;54.01;100639.06;1787527;80;27620;-52
2023/05/30 04:47:02;;;;;;;7.17;2.33;;;;;;;14.27;54.07;100637.35;1789708;80;25523;-52
2023/05/30 04:49:30;;;;;;;7.42;2.83;;;;;;;14.39;53.93;100636.67;1790428;80;25598;-51
2023/05/30 04:51:57;;;;;;;8.13;3.55;;;;;;;14.49;53.99;100636.30;1787435;80;27686;-52
2023/05/30 04:54:27;;;;;;;6.62;2.17;;;;;;;14.61;53.95;100639.73;1787437;80;25381;-52
2023/05/30 04:56:51;;;;;;;9.48;3.22;;;;;;;14.70;53.70;100638.32;1739841;81;27467;-53
2023/05/30 04:59:18;;;;;;;4.28;2.40;;;;;;;14.78;53.41;100644.29;1777601;80;25590;-54
2023/05/30 05:01:45;;;;;;;57.58;53.25;;;;;;;14.85;53.36;100639.69;1758871;81;25376;-55
2023/05/30 05:04:12;;;;;;;9.35;2.60;;;;;;;14.91;53.40;100640.53;1758825;81;25631;-55
2023/05/30 05:06:39;;;;;;;11.00;2.95;;;;;;;14.96;53.10;100644.97;1758905;81;25430;-53
2023/05/30 05:09:06;;;;;;;70.70;66.07;;;;;;;15.03;53.18;100641.16;1758867;81;29628;-54
2023/05/30 05:11:32;;;;;;;76.70;71.80;;;;;;;15.08;53.08;100645.62;1758778;81;25667;-53
2023/05/30 05:13:59;;;;;;;10.45;2.37;;;;;;;15.15;52.78;100645.89;1758921;81;25604;-54
2023/05/30 05:16:25;;;;;;;12.18;2.37;;;;;;;15.21;52.55;100651.96;1758820;81;25640;-54
2023/05/30 05:18:51;;;;;;;5.92;2.42;;;;;;;15.27;52.28;100644.63;1758950;81;25446;-54
2023/05/30 05:21:18;;;;;;;7.45;2.37;;;;;;;15.34;52.32;100649.55;1759005;81;27522;-54
2023/05/30 05:23:44;;;;;;;4.80;2.17;;;;;;;15.44;52.32;100649.69;1759046;81;25609;-55
2023/05/30 05:26:11;;;;;;;9.00;2.83;;;;;;;15.56;52.50;100651.68;1759044;81;25188;-53
2023/05/30 05:28:38;;;;;;;52.23;48.83;;;;;;;15.71;52.38;100657.09;1759046;81;27642;-55
2023/05/30 05:31:05;;;;;;;43.02;39.83;;;;;;;15.85;52.19;100653.52;1759066;81;25568;-52
2023/05/30 05:33:31;;;;;;;71.85;67.17;;;;;;;16.00;51.86;100659.70;1758851;81;27498;-55
2023/05/30 05:35:57;;;;;;;4.90;2.12;;;;;;;16.13;51.62;100663.28;1758719;81;25548;-54
2023/05/30 05:38:23;;;;;;;22.95;20.70;;;;;;;16.28;51.23;100666.48;1758860;81;25557;-55
2023/05/30 05:40:50;;;;;;;56.20;52.48;;;;;;;16.40;51.07;100663.22;1758866;81;25580;-52
2023/05/30 05:43:16;;;;;;;29.77;27.15;;;;;;;16.51;50.92;100659.47;1758726;81;25595;-53
2023/05/30 05:45:42;;;;;;;60.12;55.63;;;;;;;16.70;50.66;100669.86;1758715;81;27512;-55
2023/05/30 05:48:08;;;;;;;71.55;66.40;;;;;;;16.85;50.39;100666.23;1758716;81;25608;-52
2023/05/30 05:50:35;;;;;;;63.38;59.33;;;;;;;16.97;50.17;100672.50;1758834;81;25580;-52
2023/05/30 05:53:01;;;;;;;7.12;3.62;;;;;;;17.14;50.15;100674.16;1758811;81;25597;-54
2023/05/30 05:55:27;;;;;;;53.02;49.30;;;;;;;17.33;49.95;100679.05;1758857;81;25378;-53
2023/05/30 05:57:53;;;;;;;74.70;69.95;;;;;;;17.46;49.39;100681.16;1754279;81;29790;-51
2023/05/30 06:00:20;;;;;;;37.85;35.15;;;;;;;17.60;48.96;100682.14;1753606;81;27405;-53
2023/05/30 06:02:47;;;;;;;75.37;70.20;;;;;;;17.78;48.74;100676.40;1753732;81;25365;-53
2023/05/30 06:05:13;;;;;;;74.67;69.97;;;;;;;17.93;48.43;100687.98;1753769;81;27775;-54
2023/05/30 06:07:39;;;;;;;73.40;68.67;;;;;;;18.10;48.37;100683.56;1753824;81;25544;-54
2023/05/30 06:10:09;;;;;;;6.42;2.62;;;;;;;18.23;47.83;100681.53;1753736;81;29701;-52
2023/05/30 06:12:35;;;;;;;13.13;2.67;;;;;;;18.38;47.54;100684.08;1753701;81;25391;-51
2023/05/30 06:15:01;;;;;;;7.70;2.67;;;;;;;18.48;47.46;100685.50;1753711;81;25437;-55
2023/05/30 06:17:29;;;;;;;9.78;2.72;;;;;;;18.58;47.35;100692.41;1753744;81;25597;-53
2023/05/30 06:19:57;;;;;;;9.90;2.58;;;;;;;18.70;47.09;100687.41;1753956;81;25667;-54
2023/05/30 06:22:24;;;;;;;6.53;2.67;;;;;;;18.80;46.76;100689.61;1753691;81;27480;-53
2023/05/30 06:24:50;;;;;;;4.55;2.47;;;;;;;18.93;46.63;100693.05;1753652;81;25551;-49
2023/05/30 06:27:16;;;;;;;6.60;2.20;;;;;;;19.02;46.51;100688.98;1753857;81;25460;-54
2023/05/30 06:29:43;;;;;;;8.78;3.50;;;;;;;19.11;46.02;100694.27;1753736;81;25948;-56
2023/05/30 06:32:10;;;;;;;8.08;2.30;;;;;;;19.18;45.48;100690.89;1753783;81;25566;-55
2023/05/30 06:34:37;;;;;;;8.30;2.17;;;;;;;19.24;44.86;100694.95;1753806;81;27475;-52
2023/05/30 06:37:06;;;;;;;51.92;48.75;;;;;;;19.30;44.70;100697.62;1753810;81;27366;-52
2023/05/30 06:39:32;;;;;;;6.67;3.12;;;;;;;19.37;44.41;100699.14;1753939;81;25502;-56
2023/05/30 06:42:00;;;;;;;30.88;28.45;;;;;;;19.51;44.62;100700.60;1753876;81;25572;-55
2023/05/30 06:44:27;;;;;;;4.60;1.98;;;;;;;19.68;44.14;100706.24;1754087;81;25423;-54
2023/05/30 06:46:53;;;;;;;6.75;2.05;;;;;;;19.86;44.04;100706.64;1753893;81;27497;-53
2023/05/30 06:49:19;;;;;;;6.60;2.40;;;;;;;20.05;43.46;100703.87;1752966;81;25798;-56
2023/05/30 06:51:46;;;;;;;4.33;2.20;;;;;;;20.22;43.27;100716.34;1752804;81;25869;-49
2023/05/30 06:54:12;;;;;;;8.03;2.15;;;;;;;20.41;42.30;100708.63;1752984;81;25985;-54
2023/05/30 06:56:38;;;;;;;4.92;2.33;;;;;;;20.56;41.77;100705.55;1757882;81;25696;-54
2023/05/30 06:59:04;;;;;;;3.90;2.12;;;;;;;20.74;41.29;100711.39;1771401;81;27546;-53
2023/05/30 07:01:31;;;;;;;7.58;2.45;;;;;;;20.88;40.97;100702.57;1771381;81;26097;-52
2023/05/30 07:03:57;;;;;;;6.87;1.90;;;;;;;21.03;40.61;100711.25;1771903;81;25657;-53
2023/05/30 07:06:25;;;;;;;8.48;6.15;;;;;;;21.26;40.47;100713.92;1772226;81;25563;-52
2023/05/30 07:08:52;;;;;;;12.35;1.92;;;;;;;21.48;39.87;100718.37;1772457;81;25624;-51
2023/05/30 07:11:19;;;;;;;6.33;2.40;;;;;;;21.67;39.15;100709.77;1772305;81;27996;-47
2023/05/30 07:13:45;;;;;;;10.78;2.50;;;;;;;21.87;38.91;100711.19;1772188;81;25446;-49
2023/05/30 07:16:11;;;;;;;4.65;2.17;;;;;;;22.11;38.63;100703.58;1772196;81;25560;-49
2023/05/30 07:18:38;;;;;;;7.33;2.00;;;;;;;22.37;38.49;100713.12;1772183;81;25601;-53
2023/05/30 07:21:07;;;;;;;55.05;51.50;;;;;;;22.63;37.81;100718.27;1772293;81;25377;-51
2023/05/30 07:23:35;;;;;;;8.50;2.20;;;;;;;22.86;37.24;100720.80;1772371;81;27584;-52
2023/05/30 07:26:01;;;;;;;3.05;1.80;;;;;;;23.05;36.51;100716.20;1772174;81;25697;-51
2023/05/30 07:28:28;;;;;;;6.72;2.12;;;;;;;23.22;36.02;100713.39;1772294;81;25612;-53
2023/05/30 07:30:54;;;;;;;7.10;2.27;;;;;;;23.39;35.88;100716.83;1772220;81;25573;-51
2023/05/30 07:33:20;;;;;;;7.78;1.95;;;;;;;23.59;35.44;100715.16;1772305;81;25633;-51
2023/05/30 07:35:47;;;;;;;7.67;2.42;;;;;;;23.83;35.56;100710.94;1772205;81;25867;-54
2023/05/30 07:38:13;;;;;;;8.03;2.90;;;;;;;24.07;35.33;100711.41;1772247;81;25599;-53
2023/05/30 07:40:39;;;;;;;30.12;27.48;;;;;;;24.35;34.80;100718.36;1772325;81;25523;-50
2023/05/30 07:43:06;;;;;;;8.58;3.25;;;;;;;24.60;34.74;100711.50;1772238;81;26129;-52
2023/05/30 07:45:33;;;;;;;4.22;2.30;;;;;;;24.84;34.19;100708.31;1772282;81;25426;-51
2023/05/30 07:47:59;;;;;;;6.67;2.47;;;;;;;25.12;34.21;100717.18;1772285;81;27553;-50
2023/05/30 07:50:26;;;;;;;10.40;2.12;;;;;;;25.38;33.40;100713.17;1772229;81;25384;-50
2023/05/30 07:52:52;;;;;;;7.28;2.05;;;;;;;25.56;32.73;100706.78;1772248;81;25582;-51
2023/05/30 07:55:18;;;;;;;6.67;1.72;;;;;;;25.71;32.15;100713.83;1772223;81;25622;-50
2023/05/30 07:57:45;;;;;;;9.93;2.37;;;;;;;25.89;31.71;100707.61;1761319;81;25435;-50
2023/05/30 08:00:15;;;;;;;10.28;2.30;;;;;;;26.09;31.54;100711.30;1753862;81;27122;-50
2023/05/30 08:02:41;;;;;;;4.25;1.55;;;;;;;26.32;31.32;100709.95;1753800;81;25556;-50
2023/05/30 08:05:08;;;;;;;5.55;2.27;;;;;;;26.47;30.79;100705.88;1753889;81;25459;-51
2023/05/30 08:07:34;;;;;;;65.57;61.70;;;;;;;26.71;30.50;100706.89;1753853;81;27722;-52
2023/05/30 08:10:02;;;;;;;63.50;59.80;;;;;;;27.01;30.13;100707.60;1753905;81;25446;-52
2023/05/30 08:12:31;;;;;;;65.20;61.37;;;;;;;27.27;29.90;100710.12;1753809;81;27559;-50
2023/05/30 08:14:58;;;;;;;7.62;2.40;;;;;;;27.50;29.11;100711.66;1753740;81;25786;-50
2023/05/30 08:17:25;;;;;;;7.30;2.08;;;;;;;27.57;29.09;100715.73;1753858;81;25635;-50
2023/05/30 08:19:53;;;;;;;7.55;2.00;;;;;;;27.69;28.71;100712.23;1753795;81;25573;-50
2023/05/30 08:22:23;;;;;;;7.90;1.65;;;;;;;28.07;29.14;100721.86;1754012;81;25481;-50
2023/05/30 08:24:54;;;;;;;5.85;1.80;;;;;;;28.43;28.50;100717.92;1753863;81;27486;-52
2023/05/30 08:27:23;;;;;;;5.72;1.70;;;;;;;28.75;28.13;100720.81;1753915;81;25768;-55
2023/05/30 08:29:49;;;;;;;;;;;;;;;29.01;27.65;100717.78;1756534;81;25383;-56
2023/05/30 08:32:17;;;;;;;6.25;1.80;;;;;;;29.18;26.79;100720.05;1753857;81;25633;-52
2023/05/30 08:34:47;;;;;;;3.13;1.57;;;;;;;29.31;26.54;100716.03;1754121;81;25437;-51
2023/05/30 08:37:13;;;;;;;8.60;2.40;;;;;;;29.48;26.38;100717.51;1753553;81;27489;-55
2023/05/30 08:39:39;;;;;;;60.78;57.27;;;;;;;29.58;26.18;100720.06;1753776;81;25884;-54
2023/05/30 08:42:07;;;;;;;61.70;58.23;;;;;;;29.73;25.82;100715.56;1753898;81;25569;-53
2023/05/30 08:44:34;;;;;;;60.38;56.90;;;;;;;29.80;25.33;100719.03;1728366;81;25499;-52
2023/05/30 08:47:01;;;;;;;60.63;57.03;;;;;;;29.98;25.40;100722.02;1753936;81;25596;-54
2023/05/30 08:49:32;;;;;;;59.42;56.05;;;;;;;30.22;25.00;100718.48;1753953;81;28095;-54
2023/05/30 08:52:03;;;;;;;58.87;55.23;;;;;;;30.43;24.64;100720.63;1753820;81;25544;-54
2023/05/30 08:54:44;;;;;;;10.60;2.17;;;;;;;30.69;24.64;100710.41;1752458;81;25691;-55
2023/05/30 08:57:24;;;;;;;7.87;1.80;;;;;;;30.98;24.09;100726.44;1681916;84;25754;-51
2023/05/30 08:59:55;;;;;;;5.75;1.75;;;;;;;30.87;23.56;100733.06;1690298;84;25600;-52
2023/05/30 09:02:23;;;;;;;4.95;1.55;;;;;;;31.07;23.72;100729.38;1690342;84;27525;-54
2023/05/30 09:04:52;;;;;;;4.00;1.20;;;;;;;31.21;23.31;100729.00;1690108;84;25711;-52
2023/05/30 09:07:21;;;;;;;4.53;1.87;;;;;;;31.44;23.41;100727.93;1690311;84;25631;-54
2023/05/30 09:09:48;;;;;;;;;;;;;;;31.60;22.95;100726.31;1693151;84;25681;-53
2023/05/30 09:12:15;;;;;;;10.38;1.92;;;;;;;31.92;22.93;100737.94;1685948;85;25510;-54
2023/05/30 09:14:41;;;;;;;7.37;2.35;;;;;;;31.92;22.93;100737.94;1691124;84;27496;-53
2023/05/30 09:17:10;;;;;;;4.90;1.80;;;;;;;31.82;22.11;100746.84;1691018;84;25951;-52
2023/05/30 09:19:38;;;;;;;;;;;;;;;31.51;21.84;100735.36;1693640;84;25656;-52
2023/05/30 09:22:07;;;;;;;5.17;1.90;;;;;;;31.51;21.69;100734.59;1691124;84;25559;-52
2023/05/30 09:25:06;;;;;;;6.12;1.92;;;;;;;31.65;22.14;100749.53;1691248;84;25454;-52
2023/05/30 09:27:38;;;;;;;6.40;2.12;;;;;;;31.65;22.14;100749.53;1691166;84;27654;-52
2023/05/30 09:30:13;;;;;;;6.62;1.80;;;;;;;31.83;22.09;100743.42;1691131;84;25658;-55
2023/05/30 09:32:40;;;;;;;4.83;1.80;;;;;;;32.02;21.98;100741.64;1691122;84;25446;-56
2023/05/30 09:35:10;;;;;;;6.10;1.77;;;;;;;32.19;21.64;100740.33;1722736;82;25770;-56
2023/05/30 09:37:44;;;;;;;5.95;1.95;;;;;;;32.44;21.61;100740.75;1764061;81;25645;-57
2023/05/30 09:40:19;;;;;;;6.78;1.87;;;;;;;32.64;21.68;100744.12;1764051;81;27541;-53
2023/05/30 09:42:49;;;;;;;8.38;2.77;;;;;;;32.86;21.50;100744.78;1762676;81;25562;-54
2023/05/30 09:45:24;;;;;;;4.37;1.40;;;;;;;33.15;21.04;100744.58;1764067;81;25634;-52
2023/05/30 09:47:52;;;;;;;6.75;1.90;;;;;;;33.13;20.41;100737.22;1763981;81;27601;-55
2023/05/30 09:50:26;;;;;;;;;;;;;;;33.03;20.69;100749.00;1766660;81;25394;-52
2023/05/30 09:52:56;;;;;;;6.72;1.70;;;;;;;33.33;20.37;100732.73;1764046;81;27691;-55
2023/05/30 09:55:28;;;;;;;6.40;1.90;;;;;;;33.63;20.42;100732.62;1764004;81;25270;-55
2023/05/30 09:57:55;;;;;;;3.92;1.67;;;;;;;33.85;20.09;100731.20;1763508;81;25437;-56
2023/05/30 10:00:31;;;;;;;5.75;1.47;;;;;;;33.82;20.00;100733.52;1762911;81;26152;-56
2023/05/30 10:02:58;;;;;;;6.03;1.70;;;;;;;33.91;19.89;100727.80;1762983;81;25650;-56
2023/05/30 10:05:29;;;;;;;4.35;2.30;;;;;;;34.01;19.84;100728.77;1763055;81;28498;-56
2023/05/30 10:07:58;;;;;;;9.60;2.00;;;;;;;34.01;19.36;100730.17;1762886;81;25744;-52
2023/05/30 10:10:26;;;;;;;2.92;1.67;;;;;;;33.94;19.48;100731.86;1763109;81;25438;-53
2023/05/30 10:12:55;;;;;;;;;;;;;;;33.92;18.89;100734.35;1765674;81;25628;-52
2023/05/30 10:15:23;;;;;;;;;;;;;;;33.88;18.78;100740.70;1765807;81;25199;-52
2023/05/30 10:18:10;;;;;;;5.90;1.77;;;;;;;34.02;18.80;100730.94;1763229;81;27573;-55
2023/05/30 10:20:43;;;;;;;6.55;1.70;;;;;;;34.24;18.82;100730.30;1763038;81;25818;-51
2023/05/30 10:23:13;;;;;;;4.83;1.92;;;;;;;34.49;18.68;100732.68;1782077;80;25524;-54
2023/05/30 10:25:49;;;;;;;5.33;2.05;;;;;;;34.66;18.36;100731.00;1781533;80;25558;-54
2023/05/30 10:28:21;;;;;;;8.70;2.62;;;;;;;34.75;18.37;100736.05;1782577;80;25551;-54
2023/05/30 10:30:50;;;;;;;6.75;2.00;;;;;;;34.95;18.30;100732.75;1759918;81;28012;-52
2023/05/30 10:33:21;;;;;;;6.00;1.82;;;;;;;35.00;17.88;100739.78;1759797;81;25750;-52
2023/05/30 10:35:48;;;;;;;4.00;2.10;;;;;;;35.09;17.73;100731.36;1782463;80;25358;-53
2023/05/30 10:38:17;;;;;;;5.42;1.85;;;;;;;35.07;17.32;100734.47;1782414;80;25567;-51
2023/05/30 10:41:06;;;;;;;4.97;2.10;;;;;;;34.95;17.27;100739.00;1782616;80;25634;-53
2023/05/30 10:44:03;;;;;;;6.45;1.80;;;;;;;34.90;17.44;100741.80;1782607;80;27444;-53
2023/05/30 10:46:55;;;;;;;3.25;1.60;;;;;;;34.92;17.07;100742.74;1782436;80;25704;-51
2023/05/30 10:49:28;;;;;;;4.45;1.57;;;;;;;34.95;16.76;100745.39;1782098;80;25472;-54
2023/05/30 10:52:05;;;;;;;7.42;4.40;;;;;;;34.90;16.27;100741.03;1782570;80;25627;-56
2023/05/30 10:54:35;;;;;;;13.22;11.83;;;;;;;34.59;16.28;100741.28;1782631;80;25627;-55
2023/05/30 10:57:24;;;;;;;6.37;1.80;;;;;;;34.36;16.27;100738.44;1759863;81;27403;-57
2023/05/30 10:59:58;;;;;;;6.05;2.00;;;;;;;34.25;16.08;100746.50;1782587;80;25167;-56
2023/05/30 11:02:39;;;;;;;3.92;1.65;;;;;;;34.17;16.34;100743.16;1759306;81;25371;-55
2023/05/30 11:05:09;;;;;;;4.78;1.85;;;;;;;34.14;16.35;100739.09;1759830;81;26155;-54
2023/05/30 11:07:41;;;;;;;3.15;1.80;;;;;;;34.20;16.42;100734.48;1759891;81;25384;-55
2023/05/30 11:10:11;;;;;;;2.37;1.70;;;;;;;34.33;16.45;100727.36;1759880;81;28039;-53
2023/05/30 11:12:44;;;;;;;5.00;1.40;;;;;;;34.37;16.33;100738.58;1759782;81;25592;-56
2023/05/30 11:15:33;;;;;;;6.40;2.37;;;;;;;34.42;15.87;100725.96;1759885;81;25446;-57
2023/05/30 11:18:01;;;;;;;4.12;2.15;;;;;;;34.34;15.65;100731.70;1782168;80;26061;-57
2023/05/30 11:20:28;;;;;;;10.60;6.30;;;;;;;34.24;15.65;100737.91;1782629;80;25529;-57
2023/05/30 11:23:09;;;;;;;15.58;11.05;;;;;;;34.42;15.47;100734.38;1782537;80;27516;-57
2023/05/30 11:25:36;;;;;;;4.10;1.98;;;;;;;34.61;15.49;100739.41;1782471;80;27291;-58
2023/05/30 11:28:12;;;;;;;4.40;1.70;;;;;;;34.75;15.50;100738.05;1781773;80;25739;-58
2023/05/30 11:30:47;;;;;;;3.40;1.52;;;;;;;34.66;15.21;100740.20;1758397;81;25738;-58
2023/05/30 11:33:17;;;;;;;4.60;1.37;;;;;;;34.48;15.07;100747.98;1759943;81;25673;-58